Terminal Aerodrome Forecast
Issued by NWS North Platte, NE

Home | Current Version | Previous Version | Graphics & Text | Print | Product List | Glossary On
Versions: 1 2 3 4 5 6 7 8 9 10 11 12 13 14 15 16 17 18
000
FTUS43 KLBF 200300 AAA
TAFVTN
TAF AMD
KVTN 200336Z 2004/2024 02007KT P6SM -RA BKN025 OVC035
     FM200600 VRB04KT P6SM OVC025=

USA.gov is the U.S. government's official web portal to all federal, state and local government web resources and services.